Time,TemperatureF,DewpointF,PressureIn,WindDirection,WindDirectionDegrees,WindSpeedMPH,WindSpeedGustMPH,Humidity,HourlyPrecipIn,Conditions,Clouds,dailyrainin,SoftwareType,DateUTC
2013-06-18 00:00:00,62.9,62.3,29.93,SSW,200,0.0,0.0,98,0.00,,,0.00,Wunderground v.1.15,2013-06-18 04:00:00,
2013-06-18 00:05:00,62.9,62.3,29.93,SSW,200,0.0,0.0,98,0.00,,,0.00,Wunderground v.1.15,2013-06-18 04:05:00,
2013-06-18 00:10:00,62.8,62.2,29.93,SSW,200,0.0,0.0,98,0.00,,,0.00,Wunderground v.1.15,2013-06-18 04:10:00,
2013-06-18 00:15:00,62.8,62.2,29.93,SSW,200,0.0,0.0,98,0.00,,,0.00,Wunderground v.1.15,2013-06-18 04:15:00,
2013-06-18 00:20:00,62.7,62.1,29.92,SSW,200,0.0,0.0,98,0.00,,,0.00,Wunderground v.1.15,2013-06-18 04:20:00,
2013-06-18 00:25:00,62.6,62.0,29.92,SSW,200,0.0,0.0,98,0.00,,,0.00,Wunderground v.1.15,2013-06-18 04:25:00,
2013-06-18 00:30:00,62.6,62.0,29.92,SSW,200,0.0,0.0,98,0.00,,,0.00,Wunderground v.1.15,2013-06-18 04:30:00,
2013-06-18 00:35:00,62.8,62.2,29.92,SSW,200,0.0,0.0,98,0.00,,,0.00,Wunderground v.1.15,2013-06-18 04:35:00,
2013-06-18 00:40:00,62.8,62.2,29.92,SSW,200,0.0,0.0,98,0.00,,,0.00,Wunderground v.1.15,2013-06-18 04:40:00,
2013-06-18 00:45:00,62.9,62.3,29.92,SSW,200,0.0,0.0,98,0.00,,,0.00,Wunderground v.1.15,2013-06-18 04:45:00,
2013-06-18 00:55:00,63.3,62.7,29.92,South,190,0.0,0.0,98,0.00,,,0.00,Wunderground v.1.15,2013-06-18 04:55:00,
2013-06-18 01:00:00,63.4,62.8,29.92,South,190,0.0,0.0,98,0.00,,,0.00,Wunderground v.1.15,2013-06-18 05:00:00,
2013-06-18 01:10:00,63.2,62.6,29.92,South,190,0.0,0.0,98,0.00,,,0.00,Wunderground v.1.15,2013-06-18 05:10:00,
2013-06-18 01:15:00,63.1,62.5,29.91,South,190,0.0,0.0,98,0.00,,,0.00,Wunderground v.1.15,2013-06-18 05:15:00,
2013-06-18 01:20:00,62.9,62.3,29.91,South,190,0.0,0.0,98,0.00,,,0.00,Wunderground v.1.15,2013-06-18 05:20:00,
2013-06-18 01:25:00,62.8,62.2,29.91,South,190,0.0,0.0,98,0.00,,,0.00,Wunderground v.1.15,2013-06-18 05:25:00,
2013-06-18 01:35:00,62.5,61.9,29.91,South,190,0.0,0.0,98,0.00,,,0.00,Wunderground v.1.15,2013-06-18 05:35:00,
2013-06-18 01:40:00,62.6,62.0,29.91,South,190,0.0,0.0,98,0.00,,,0.00,Wunderground v.1.15,2013-06-18 05:40:00,
2013-06-18 01:45:00,62.7,62.1,29.91,South,190,0.0,0.0,98,0.00,,,0.00,Wunderground v.1.15,2013-06-18 05:45:00,
2013-06-18 01:50:00,62.7,62.1,29.90,South,190,0.0,0.0,98,0.00,,,0.00,Wunderground v.1.15,2013-06-18 05:50:00,
2013-06-18 01:55:00,62.6,62.0,29.90,South,190,0.0,0.0,98,0.00,,,0.00,Wunderground v.1.15,2013-06-18 05:55:00,
2013-06-18 02:00:00,62.4,61.8,29.90,South,190,0.0,0.0,98,0.00,,,0.00,Wunderground v.1.15,2013-06-18 06:00:00,
2013-06-18 02:10:00,62.5,61.9,29.90,South,190,0.0,0.0,98,0.00,,,0.00,Wunderground v.1.15,2013-06-18 06:10:00,
2013-06-18 02:15:00,62.6,62.0,29.90,South,190,0.0,0.0,98,0.00,,,0.00,Wunderground v.1.15,2013-06-18 06:15:00,
2013-06-18 02:20:00,62.6,62.0,29.91,NNE,32,0.0,4.0,98,0.00,,,0.00,Wunderground v.1.15,2013-06-18 06:20:00,
2013-06-18 02:25:00,63.0,62.7,29.91,NE,44,3.0,6.0,99,0.00,,,0.00,Wunderground v.1.15,2013-06-18 06:25:00,
2013-06-18 02:30:00,63.3,63.0,29.91,NNE,28,3.0,3.0,99,0.00,,,0.00,Wunderground v.1.15,2013-06-18 06:30:00,
2013-06-18 02:35:00,63.3,63.0,29.91,NNE,18,1.0,3.0,99,0.00,,,0.00,Wunderground v.1.15,2013-06-18 06:35:00,
2013-06-18 02:40:00,63.4,63.1,29.91,NNE,33,3.0,3.0,99,0.00,,,0.00,Wunderground v.1.15,2013-06-18 06:40:00,
2013-06-18 02:45:00,63.5,63.2,29.91,NNE,30,3.0,3.0,99,0.00,,,0.00,Wunderground v.1.15,2013-06-18 06:45:00,
2013-06-18 02:50:00,63.4,63.1,29.91,NNE,29,1.0,2.0,99,0.00,,,0.00,Wunderground v.1.15,2013-06-18 06:50:00,
2013-06-18 03:00:00,63.3,62.7,29.90,East,82,2.0,2.0,98,0.00,,,0.00,Wunderground v.1.15,2013-06-18 07:00:00,
2013-06-18 03:10:00,63.3,62.7,29.90,North,6,2.0,2.0,98,0.00,,,0.01,Wunderground v.1.15,2013-06-18 07:10:00,
2013-06-18 03:15:00,63.3,62.7,29.90,SE,124,1.0,2.0,98,0.00,,,0.01,Wunderground v.1.15,2013-06-18 07:15:00,
2013-06-18 03:20:00,63.2,62.6,29.90,SE,124,0.0,0.0,98,0.00,,,0.01,Wunderground v.1.15,2013-06-18 07:20:00,
2013-06-18 03:25:00,63.0,62.4,29.90,SE,124,0.0,0.0,98,0.00,,,0.01,Wunderground v.1.15,2013-06-18 07:25:00,
2013-06-18 03:30:00,62.8,62.2,29.90,SE,124,0.0,0.0,98,0.00,,,0.01,Wunderground v.1.15,2013-06-18 07:30:00,
2013-06-18 03:40:00,62.7,62.1,29.90,SE,124,0.0,0.0,98,0.00,,,0.01,Wunderground v.1.15,2013-06-18 07:40:00,
2013-06-18 03:45:00,62.5,61.9,29.90,SE,124,0.0,0.0,98,0.00,,,0.01,Wunderground v.1.15,2013-06-18 07:45:00,
2013-06-18 03:50:00,62.3,61.7,29.90,South,174,0.0,0.0,98,0.00,,,0.01,Wunderground v.1.15,2013-06-18 07:50:00,
2013-06-18 03:55:00,62.3,61.7,29.90,South,174,0.0,0.0,98,0.00,,,0.01,Wunderground v.1.15,2013-06-18 07:55:00,
2013-06-18 04:00:00,62.2,61.6,29.90,SSE,165,0.0,0.0,98,0.00,,,0.01,Wunderground v.1.15,2013-06-18 08:00:00,
2013-06-18 04:10:00,62.0,61.4,29.90,SSE,167,0.0,0.0,98,0.00,,,0.01,Wunderground v.1.15,2013-06-18 08:10:00,
2013-06-18 04:20:00,61.9,61.3,29.90,SSE,149,0.0,0.0,98,0.00,,,0.01,Wunderground v.1.15,2013-06-18 08:20:00,
2013-06-18 04:25:00,61.8,61.2,29.90,ESE,115,1.0,1.0,98,0.00,,,0.01,Wunderground v.1.15,2013-06-18 08:25:00,
2013-06-18 04:30:00,61.7,61.1,29.89,ESE,114,1.0,1.0,98,0.00,,,0.01,Wunderground v.1.15,2013-06-18 08:30:00,
2013-06-18 04:35:00,61.7,61.1,29.89,ESE,114,0.0,1.0,98,0.00,,,0.01,Wunderground v.1.15,2013-06-18 08:35:00,
2013-06-18 04:40:00,61.6,61.0,29.89,ESE,114,0.0,0.0,98,0.00,,,0.01,Wunderground v.1.15,2013-06-18 08:40:00,
2013-06-18 04:45:00,61.5,60.9,29.89,ESE,115,0.0,0.0,98,0.00,,,0.01,Wunderground v.1.15,2013-06-18 08:45:00,
2013-06-18 04:50:00,61.4,60.8,29.89,ESE,115,0.0,1.0,98,0.00,,,0.01,Wunderground v.1.15,2013-06-18 08:50:00,
2013-06-18 05:00:00,61.2,60.6,29.90,ESE,115,0.0,0.0,98,0.00,,,0.01,Wunderground v.1.15,2013-06-18 09:00:00,
2013-06-18 05:10:00,61.0,60.4,29.89,ESE,114,0.0,0.0,98,0.00,,,0.01,Wunderground v.1.15,2013-06-18 09:10:00,
2013-06-18 05:15:00,61.0,60.4,29.89,ESE,115,0.0,0.0,98,0.00,,,0.01,Wunderground v.1.15,2013-06-18 09:15:00,
2013-06-18 05:20:00,60.9,60.3,29.89,ESE,115,0.0,0.0,98,0.00,,,0.01,Wunderground v.1.15,2013-06-18 09:20:00,
2013-06-18 05:25:00,60.8,60.2,29.89,ESE,114,0.0,0.0,98,0.00,,,0.01,Wunderground v.1.15,2013-06-18 09:25:00,
2013-06-18 05:30:00,60.9,60.3,29.90,ESE,115,0.0,0.0,98,0.00,,,0.01,Wunderground v.1.15,2013-06-18 09:30:00,
2013-06-18 05:40:00,60.8,60.2,29.90,ESE,114,0.0,0.0,98,0.00,,,0.01,Wunderground v.1.15,2013-06-18 09:40:00,
2013-06-18 05:45:00,60.7,60.1,29.90,ESE,114,0.0,1.0,98,0.00,,,0.01,Wunderground v.1.15,2013-06-18 09:45:00,
2013-06-18 05:50:00,60.8,60.5,29.90,ESE,114,0.0,0.0,99,0.00,,,0.01,Wunderground v.1.15,2013-06-18 09:50:00,
2013-06-18 05:55:00,60.8,60.5,29.91,ESE,115,0.0,0.0,99,0.00,,,0.01,Wunderground v.1.15,2013-06-18 09:55:00,
2013-06-18 06:00:00,60.8,60.5,29.91,ESE,115,0.0,0.0,99,0.00,,,0.01,Wunderground v.1.15,2013-06-18 10:00:00,
2013-06-18 06:10:00,61.3,61.0,29.92,NE,39,2.0,2.0,99,0.00,,,0.01,Wunderground v.1.15,2013-06-18 10:10:00,
2013-06-18 06:20:00,61.6,61.3,29.92,North,351,1.0,1.0,99,0.00,,,0.01,Wunderground v.1.15,2013-06-18 10:20:00,
2013-06-18 06:25:00,61.8,61.5,29.93,NNE,23,1.0,1.0,99,0.00,,,0.01,Wunderground v.1.15,2013-06-18 10:25:00,
2013-06-18 06:30:00,62.0,61.7,29.93,NNE,23,1.0,1.0,99,0.00,,,0.01,Wunderground v.1.15,2013-06-18 10:30:00,
2013-06-18 06:35:00,62.0,61.7,29.92,NNE,23,0.0,1.0,99,0.00,,,0.01,Wunderground v.1.15,2013-06-18 10:35:00,
2013-06-18 06:40:00,62.1,61.8,29.92,ESE,103,0.0,1.0,99,0.00,,,0.01,Wunderground v.1.15,2013-06-18 10:40:00,
2013-06-18 06:45:00,62.2,61.9,29.92,SE,129,0.0,1.0,99,0.00,,,0.01,Wunderground v.1.15,2013-06-18 10:45:00,
2013-06-18 06:55:00,62.2,61.9,29.92,SE,129,0.0,0.0,99,0.00,,,0.01,Wunderground v.1.15,2013-06-18 10:55:00,
2013-06-18 07:05:00,62.4,62.1,29.91,SE,129,0.0,0.0,99,0.00,,,0.01,Wunderground v.1.15,2013-06-18 11:05:00,
2013-06-18 07:10:00,62.4,62.1,29.91,SE,133,0.0,1.0,99,0.00,,,0.01,Wunderground v.1.15,2013-06-18 11:10:00,
2013-06-18 07:15:00,62.6,62.3,29.91,SE,132,0.0,1.0,99,0.00,,,0.01,Wunderground v.1.15,2013-06-18 11:15:00,
2013-06-18 07:20:00,62.7,62.4,29.91,North,351,1.0,2.0,99,0.00,,,0.01,Wunderground v.1.15,2013-06-18 11:20:00,
2013-06-18 07:25:00,62.9,62.6,29.91,NNE,13,1.0,2.0,99,0.00,,,0.01,Wunderground v.1.15,2013-06-18 11:25:00,
2013-06-18 07:30:00,63.0,62.7,29.91,NNE,19,2.0,3.0,99,0.00,,,0.01,Wunderground v.1.15,2013-06-18 11:30:00,
2013-06-18 07:35:00,63.1,62.8,29.91,South,174,2.0,3.0,99,0.00,,,0.01,Wunderground v.1.15,2013-06-18 11:35:00,
2013-06-18 07:45:00,63.3,63.0,29.91,ENE,71,1.0,2.0,99,0.00,,,0.01,Wunderground v.1.15,2013-06-18 11:45:00,
2013-06-18 07:50:00,63.6,63.3,29.91,NE,49,0.0,0.0,99,0.00,,,0.01,Wunderground v.1.15,2013-06-18 11:50:00,
2013-06-18 07:55:00,63.7,63.4,29.91,NNE,23,0.0,0.0,99,0.00,,,0.01,Wunderground v.1.15,2013-06-18 11:55:00,
2013-06-18 08:00:00,64.0,63.7,29.91,NNE,19,0.0,3.0,99,0.00,,,0.01,Wunderground v.1.15,2013-06-18 12:00:00,
2013-06-18 08:10:00,64.7,64.1,29.91,ESE,106,1.0,1.0,98,0.00,,,0.01,Wunderground v.1.15,2013-06-18 12:10:00,
2013-06-18 08:15:00,64.9,64.3,29.91,ESE,106,0.0,1.0,98,0.00,,,0.01,Wunderground v.1.15,2013-06-18 12:15:00,
2013-06-18 08:20:00,65.3,64.7,29.91,ESE,118,0.0,0.0,98,0.00,,,0.01,Wunderground v.1.15,2013-06-18 12:20:00,
2013-06-18 08:30:00,65.6,64.7,29.91,North,353,0.0,0.0,97,0.00,,,0.01,Wunderground v.1.15,2013-06-18 12:30:00,
2013-06-18 08:35:00,65.7,64.5,29.91,North,358,0.0,0.0,96,0.00,,,0.01,Wunderground v.1.15,2013-06-18 12:35:00,
2013-06-18 08:40:00,65.7,64.2,29.91,NNE,18,0.0,2.0,95,0.00,,,0.01,Wunderground v.1.15,2013-06-18 12:40:00,
2013-06-18 08:45:00,65.7,64.2,29.91,North,5,1.0,2.0,95,0.00,,,0.01,Wunderground v.1.15,2013-06-18 12:45:00,
2013-06-18 08:50:00,65.8,64.3,29.91,NNE,15,2.0,3.0,95,0.00,,,0.01,Wunderground v.1.15,2013-06-18 12:50:00,
2013-06-18 08:55:00,65.9,64.1,29.91,NNE,22,3.0,3.0,94,0.00,,,0.01,Wunderground v.1.15,2013-06-18 12:55:00,
2013-06-18 09:00:00,66.1,64.3,29.91,NNE,25,2.0,2.0,94,0.00,,,0.01,Wunderground v.1.15,2013-06-18 13:00:00,
2013-06-18 09:10:00,66.6,64.8,29.91,NNE,23,2.0,2.0,94,0.00,,,0.01,Wunderground v.1.15,2013-06-18 13:10:00,
2013-06-18 09:15:00,66.8,64.7,29.91,NNE,22,2.0,2.0,93,0.00,,,0.01,Wunderground v.1.15,2013-06-18 13:15:00,
2013-06-18 09:20:00,67.1,65.3,29.91,NNE,26,2.0,2.0,94,0.00,,,0.01,Wunderground v.1.15,2013-06-18 13:20:00,
2013-06-18 09:25:00,67.7,66.2,29.91,NE,42,1.0,2.0,95,0.00,,,0.01,Wunderground v.1.15,2013-06-18 13:25:00,
2013-06-18 09:30:00,68.2,66.1,29.91,East,85,1.0,1.0,93,0.00,,,0.01,Wunderground v.1.15,2013-06-18 13:30:00,
2013-06-18 09:35:00,68.6,65.9,29.90,NE,56,1.0,2.0,91,0.00,,,0.01,Wunderground v.1.15,2013-06-18 13:35:00,
2013-06-18 09:40:00,68.7,66.0,29.91,NE,46,2.0,2.0,91,0.00,,,0.01,Wunderground v.1.15,2013-06-18 13:40:00,
2013-06-18 09:50:00,69.8,66.7,29.91,NE,37,1.0,2.0,90,0.00,,,0.01,Wunderground v.1.15,2013-06-18 13:50:00,
2013-06-18 10:00:00,70.9,67.2,29.91,ENE,58,1.0,1.0,88,0.00,,,0.01,Wunderground v.1.15,2013-06-18 14:00:00,
2013-06-18 10:10:00,72.4,67.6,29.91,NE,37,1.0,1.0,85,0.00,,,0.01,Wunderground v.1.15,2013-06-18 14:10:00,
2013-06-18 10:20:00,73.0,68.6,29.91,SE,129,0.0,0.0,86,0.00,,,0.01,Wunderground v.1.15,2013-06-18 14:20:00,
2013-06-18 10:30:00,73.7,68.2,29.91,NNE,22,0.0,0.0,83,0.00,,,0.01,Wunderground v.1.15,2013-06-18 14:30:00,
2013-06-18 10:35:00,73.8,69.0,29.91,NNE,18,0.0,0.0,85,0.00,,,0.01,Wunderground v.1.15,2013-06-18 14:35:00,
2013-06-18 10:40:00,73.7,68.2,29.91,NNE,23,1.0,1.0,83,0.00,,,0.01,Wunderground v.1.15,2013-06-18 14:40:00,
2013-06-18 10:45:00,74.0,68.5,29.92,NNE,20,2.0,2.0,83,0.00,,,0.01,Wunderground v.1.15,2013-06-18 14:45:00,
2013-06-18 10:50:00,73.9,68.4,29.91,ENE,61,2.0,2.0,83,0.00,,,0.01,Wunderground v.1.15,2013-06-18 14:50:00,
2013-06-18 10:55:00,74.1,69.3,29.91,NNE,20,2.0,2.0,85,0.00,,,0.01,Wunderground v.1.15,2013-06-18 14:55:00,
2013-06-18 11:00:00,74.1,69.0,29.91,ENE,58,3.0,3.0,84,0.00,,,0.01,Wunderground v.1.15,2013-06-18 15:00:00,
2013-06-18 11:10:00,74.6,68.7,29.91,NE,39,2.0,3.0,82,0.00,,,0.01,Wunderground v.1.15,2013-06-18 15:10:00,
2013-06-18 11:15:00,74.4,68.9,29.91,NW,322,2.0,3.0,83,0.00,,,0.01,Wunderground v.1.15,2013-06-18 15:15:00,
2013-06-18 11:20:00,74.6,68.7,29.92,North,358,2.0,2.0,82,0.00,,,0.01,Wunderground v.1.15,2013-06-18 15:20:00,
2013-06-18 11:25:00,74.9,69.4,29.92,NNE,29,2.0,4.0,83,0.00,,,0.01,Wunderground v.1.15,2013-06-18 15:25:00,
2013-06-18 11:30:00,74.8,68.9,29.92,NNE,32,3.0,3.0,82,0.00,,,0.01,Wunderground v.1.15,2013-06-18 15:30:00,
2013-06-18 11:40:00,74.9,69.0,29.92,NNW,342,3.0,3.0,82,0.00,,,0.01,Wunderground v.1.15,2013-06-18 15:40:00,
2013-06-18 11:45:00,75.0,68.8,29.92,NNE,20,2.0,3.0,81,0.00,,,0.01,Wunderground v.1.15,2013-06-18 15:45:00,
2013-06-18 11:50:00,75.0,68.8,29.92,NNE,32,3.0,3.0,81,0.00,,,0.01,Wunderground v.1.15,2013-06-18 15:50:00,
2013-06-18 11:55:00,75.5,69.3,29.92,NNE,25,2.0,3.0,81,0.00,,,0.01,Wunderground v.1.15,2013-06-18 15:55:00,
2013-06-18 12:00:00,75.8,69.2,29.92,NW,315,2.0,2.0,80,0.00,,,0.01,Wunderground v.1.15,2013-06-18 16:00:00,
2013-06-18 12:10:00,76.3,69.7,29.92,NW,304,2.0,2.0,80,0.00,,,0.01,Wunderground v.1.15,2013-06-18 16:10:00,
2013-06-18 12:20:00,76.5,68.7,29.92,SW,217,2.0,2.0,77,0.00,,,0.01,Wunderground v.1.15,2013-06-18 16:20:00,
2013-06-18 12:25:00,76.2,68.5,29.92,NNE,20,3.0,3.0,77,0.00,,,0.01,Wunderground v.1.15,2013-06-18 16:25:00,
2013-06-18 12:30:00,76.4,69.4,29.92,NW,310,3.0,3.0,79,0.00,,,0.01,Wunderground v.1.15,2013-06-18 16:30:00,
2013-06-18 12:35:00,77.3,69.1,29.92,WNW,297,2.0,5.0,76,0.00,,,0.01,Wunderground v.1.15,2013-06-18 16:35:00,
2013-06-18 12:40:00,77.6,69.8,29.92,ESE,110,2.0,2.0,77,0.00,,,0.01,Wunderground v.1.15,2013-06-18 16:40:00,
2013-06-18 12:45:00,77.9,69.7,29.92,NNE,19,3.0,4.0,76,0.00,,,0.01,Wunderground v.1.15,2013-06-18 16:45:00,
2013-06-18 12:55:00,77.9,68.9,29.92,NE,39,5.0,8.0,74,0.00,,,0.01,Wunderground v.1.15,2013-06-18 16:55:00,
2013-06-18 13:00:00,77.8,68.8,29.92,NW,323,5.0,5.0,74,0.00,,,0.01,Wunderground v.1.15,2013-06-18 17:00:00,
2013-06-18 13:10:00,77.6,69.0,29.92,North,1,5.0,5.0,75,0.00,,,0.01,Wunderground v.1.15,2013-06-18 17:10:00,
2013-06-18 13:15:00,77.3,68.4,29.92,NNE,19,3.0,7.0,74,0.00,,,0.01,Wunderground v.1.15,2013-06-18 17:15:00,
2013-06-18 13:20:00,77.0,68.5,29.92,NNE,32,3.0,5.0,75,0.00,,,0.01,Wunderground v.1.15,2013-06-18 17:20:00,
2013-06-18 13:25:00,77.0,68.5,29.92,NE,42,3.0,5.0,75,0.00,,,0.01,Wunderground v.1.15,2013-06-18 17:25:00,
2013-06-18 13:35:00,76.9,69.5,29.91,NNE,32,4.0,4.0,78,0.00,,,0.01,Wunderground v.1.15,2013-06-18 17:35:00,
2013-06-18 13:40:00,76.9,68.8,29.91,NW,313,4.0,4.0,76,0.00,,,0.01,Wunderground v.1.15,2013-06-18 17:40:00,
2013-06-18 13:45:00,77.2,68.3,29.91,East,89,4.0,4.0,74,0.00,,,0.01,Wunderground v.1.15,2013-06-18 17:45:00,
2013-06-18 13:50:00,77.3,67.6,29.91,NNE,25,4.0,4.0,72,0.00,,,0.01,Wunderground v.1.15,2013-06-18 17:50:00,
2013-06-18 13:55:00,77.7,69.5,29.91,NE,42,4.0,9.0,76,0.00,,,0.01,Wunderground v.1.15,2013-06-18 17:55:00,
2013-06-18 14:00:00,78.5,69.9,29.91,NNE,32,4.0,5.0,75,0.00,,,0.01,Wunderground v.1.15,2013-06-18 18:00:00,
2013-06-18 14:10:00,78.5,68.3,29.91,NNW,345,3.0,3.0,71,0.00,,,0.01,Wunderground v.1.15,2013-06-18 18:10:00,
2013-06-18 14:15:00,77.3,68.4,29.91,NE,37,4.0,7.0,74,0.00,,,0.01,Wunderground v.1.15,2013-06-18 18:15:00,
2013-06-18 14:20:00,76.3,68.2,29.91,North,6,5.0,5.0,76,0.00,,,0.01,Wunderground v.1.15,2013-06-18 18:20:00,
2013-06-18 14:25:00,76.2,68.1,29.91,NNE,26,5.0,5.0,76,0.00,,,0.01,Wunderground v.1.15,2013-06-18 18:25:00,
2013-06-18 14:30:00,76.4,68.7,29.91,NNE,32,4.0,6.0,77,0.00,,,0.01,Wunderground v.1.15,2013-06-18 18:30:00,
2013-06-18 14:35:00,76.2,68.1,29.91,North,9,5.0,6.0,76,0.00,,,0.01,Wunderground v.1.15,2013-06-18 18:35:00,
2013-06-18 14:40:00,76.5,69.1,29.91,NNE,32,4.0,4.0,78,0.00,,,0.01,Wunderground v.1.15,2013-06-18 18:40:00,
2013-06-18 14:50:00,77.0,68.5,29.90,North,6,4.0,4.0,75,0.00,,,0.01,Wunderground v.1.15,2013-06-18 18:50:00,
2013-06-18 14:55:00,77.0,68.5,29.91,NE,36,4.0,6.0,75,0.00,,,0.01,Wunderground v.1.15,2013-06-18 18:55:00,
2013-06-18 15:00:00,76.6,67.7,29.90,NE,48,5.0,6.0,74,0.00,,,0.01,Wunderground v.1.15,2013-06-18 19:00:00,
2013-06-18 15:10:00,76.5,67.6,29.91,NNE,25,6.0,6.0,74,0.00,,,0.01,Wunderground v.1.15,2013-06-18 19:10:00,
2013-06-18 15:15:00,76.2,66.5,29.91,NNE,33,5.0,6.0,72,0.00,,,0.01,Wunderground v.1.15,2013-06-18 19:15:00,
2013-06-18 15:25:00,76.6,67.3,29.91,NE,37,4.0,7.0,73,0.00,,,0.01,Wunderground v.1.15,2013-06-18 19:25:00,
2013-06-18 15:30:00,76.0,67.1,29.91,NE,40,4.0,7.0,74,0.00,,,0.01,Wunderground v.1.15,2013-06-18 19:30:00,
2013-06-18 15:35:00,75.8,67.3,29.90,NE,40,5.0,7.0,75,0.00,,,0.01,Wunderground v.1.15,2013-06-18 19:35:00,
2013-06-18 15:40:00,76.5,67.6,29.90,NW,315,5.0,5.0,74,0.00,,,0.01,Wunderground v.1.15,2013-06-18 19:40:00,
2013-06-18 15:45:00,77.2,67.5,29.90,East,90,4.0,5.0,72,0.00,,,0.01,Wunderground v.1.15,2013-06-18 19:45:00,
2013-06-18 15:50:00,77.4,66.8,29.90,NE,42,5.0,6.0,70,0.00,,,0.01,Wunderground v.1.15,2013-06-18 19:50:00,
2013-06-18 15:55:00,77.6,67.4,29.90,NW,322,5.0,6.0,71,0.00,,,0.01,Wunderground v.1.15,2013-06-18 19:55:00,
2013-06-18 16:05:00,77.9,66.1,29.89,WNW,300,4.0,4.0,67,0.00,,,0.01,Wunderground v.1.15,2013-06-18 20:05:00,
2013-06-18 16:10:00,78.2,68.0,29.89,North,5,4.0,4.0,71,0.00,,,0.01,Wunderground v.1.15,2013-06-18 20:10:00,
2013-06-18 16:15:00,78.3,66.4,29.89,North,357,5.0,5.0,67,0.00,,,0.01,Wunderground v.1.15,2013-06-18 20:15:00,
2013-06-18 16:20:00,78.3,66.4,29.89,NE,40,4.0,5.0,67,0.00,,,0.01,Wunderground v.1.15,2013-06-18 20:20:00,
2013-06-18 16:25:00,78.1,65.8,29.89,NNE,32,5.0,5.0,66,0.00,,,0.01,Wunderground v.1.15,2013-06-18 20:25:00,
2013-06-18 16:30:00,77.6,65.3,29.89,North,354,5.0,5.0,66,0.00,,,0.01,Wunderground v.1.15,2013-06-18 20:30:00,
2013-06-18 16:40:00,77.4,66.4,29.89,NNE,29,5.0,5.0,69,0.00,,,0.01,Wunderground v.1.15,2013-06-18 20:40:00,
2013-06-18 16:45:00,77.5,66.1,29.89,NE,38,6.0,6.0,68,0.00,,,0.01,Wunderground v.1.15,2013-06-18 20:45:00,
2013-06-18 16:50:00,77.6,66.6,29.89,NNE,15,5.0,5.0,69,0.00,,,0.01,Wunderground v.1.15,2013-06-18 20:50:00,
2013-06-18 16:55:00,77.9,66.5,29.89,North,2,4.0,5.0,68,0.00,,,0.01,Wunderground v.1.15,2013-06-18 20:55:00,
2013-06-18 17:00:00,77.0,66.0,29.89,NNE,22,6.0,6.0,69,0.00,,,0.01,Wunderground v.1.15,2013-06-18 21:00:00,
2013-06-18 17:10:00,76.1,65.6,29.89,North,5,4.0,4.0,70,0.00,,,0.01,Wunderground v.1.15,2013-06-18 21:10:00,
2013-06-18 19:15:00,74.6,64.2,29.92,NNE,26,6.0,12.0,70,0.00,,,0.01,Wunderground v.1.15,2013-06-18 23:15:00,
2013-06-18 19:20:00,74.2,63.8,29.92,NNE,26,6.0,6.0,70,0.00,,,0.01,Wunderground v.1.15,2013-06-18 23:20:00,
2013-06-18 19:25:00,73.7,62.9,29.92,NNE,16,7.0,8.0,69,0.00,,,0.01,Wunderground v.1.15,2013-06-18 23:25:00,
2013-06-18 19:30:00,73.2,62.8,29.93,NNE,13,7.0,7.0,70,0.00,,,0.01,Wunderground v.1.15,2013-06-18 23:30:00,
2013-06-18 19:40:00,72.4,62.1,29.93,NNE,32,6.0,12.0,70,0.00,,,0.01,Wunderground v.1.15,2013-06-18 23:40:00,
2013-06-18 19:45:00,72.2,62.3,29.93,NNE,22,6.0,12.0,71,0.00,,,0.01,Wunderground v.1.15,2013-06-18 23:45:00,
2013-06-18 19:55:00,71.5,61.6,29.93,North,9,5.0,12.0,71,0.00,,,0.01,Wunderground v.1.15,2013-06-18 23:55:00,
2013-06-18 20:00:00,71.2,61.7,29.94,NE,49,5.0,5.0,72,0.00,,,0.01,Wunderground v.1.15,2013-06-19 00:00:00,
2013-06-18 20:10:00,70.3,60.8,29.94,NE,34,4.0,10.0,72,0.00,,,0.01,Wunderground v.1.15,2013-06-19 00:10:00,
2013-06-18 20:15:00,69.8,60.8,29.94,North,11,5.0,10.0,73,0.00,,,0.01,Wunderground v.1.15,2013-06-19 00:15:00,
2013-06-18 20:20:00,69.5,60.5,29.95,NNE,23,5.0,5.0,73,0.00,,,0.01,Wunderground v.1.15,2013-06-19 00:20:00,
2013-06-18 20:25:00,69.1,60.5,29.95,NNE,20,5.0,6.0,74,0.00,,,0.01,Wunderground v.1.15,2013-06-19 00:25:00,
2013-06-18 20:30:00,68.8,60.2,29.95,ENE,65,5.0,6.0,74,0.00,,,0.01,Wunderground v.1.15,2013-06-19 00:30:00,
2013-06-18 20:40:00,68.1,59.9,29.96,NNE,20,4.0,4.0,75,0.00,,,0.01,Wunderground v.1.15,2013-06-19 00:40:00,
2013-06-18 20:50:00,67.5,59.3,29.97,NNE,15,3.0,5.0,75,0.00,,,0.01,Wunderground v.1.15,2013-06-19 00:50:00,
2013-06-18 20:55:00,67.2,58.6,29.97,NNE,23,4.0,5.0,74,0.00,,,0.01,Wunderground v.1.15,2013-06-19 00:55:00,
2013-06-18 21:00:00,67.1,58.2,29.97,NNE,19,5.0,5.0,73,0.00,,,0.01,Wunderground v.1.15,2013-06-19 01:00:00,
2013-06-18 21:10:00,66.6,58.4,29.98,NNE,26,3.0,3.0,75,0.00,,,0.01,Wunderground v.1.15,2013-06-19 01:10:00,
2013-06-18 21:15:00,66.2,58.0,29.98,NNE,25,2.0,3.0,75,0.00,,,0.01,Wunderground v.1.15,2013-06-19 01:15:00,
2013-06-18 21:25:00,65.4,58.0,29.99,NNE,27,1.0,2.0,77,0.00,,,0.01,Wunderground v.1.15,2013-06-19 01:25:00,
2013-06-18 21:30:00,65.0,57.6,29.99,North,11,2.0,2.0,77,0.00,,,0.01,Wunderground v.1.15,2013-06-19 01:30:00,
2013-06-18 21:40:00,64.6,57.2,29.99,North,9,2.0,2.0,77,0.00,,,0.01,Wunderground v.1.15,2013-06-19 01:40:00,
2013-06-18 21:45:00,64.5,57.1,29.99,North,8,2.0,2.0,77,0.00,,,0.01,Wunderground v.1.15,2013-06-19 01:45:00,
2013-06-18 21:50:00,64.2,56.8,29.99,NE,34,2.0,2.0,77,0.00,,,0.01,Wunderground v.1.15,2013-06-19 01:50:00,
2013-06-18 22:00:00,63.4,56.8,30.00,NE,34,0.0,0.0,79,0.00,,,0.01,Wunderground v.1.15,2013-06-19 02:00:00,
2013-06-18 22:10:00,62.8,56.5,30.00,NNE,25,0.0,0.0,80,0.00,,,0.01,Wunderground v.1.15,2013-06-19 02:10:00,
2013-06-18 22:15:00,62.4,56.5,30.00,NNE,25,0.0,0.0,81,0.00,,,0.01,Wunderground v.1.15,2013-06-19 02:15:00,
2013-06-18 22:20:00,62.0,56.1,30.00,NNE,25,0.0,0.0,81,0.00,,,0.01,Wunderground v.1.15,2013-06-19 02:20:00,
2013-06-18 22:25:00,61.8,56.2,30.00,NNE,12,1.0,2.0,82,0.00,,,0.01,Wunderground v.1.15,2013-06-19 02:25:00,
2013-06-18 22:35:00,62.0,56.4,30.01,North,1,1.0,1.0,82,0.00,,,0.01,Wunderground v.1.15,2013-06-19 02:35:00,
2013-06-18 22:40:00,61.7,56.1,30.01,North,4,0.0,0.0,82,0.00,,,0.01,Wunderground v.1.15,2013-06-19 02:40:00,
2013-06-18 22:50:00,61.5,55.6,30.02,NNW,345,1.0,2.0,81,0.00,,,0.01,Wunderground v.1.15,2013-06-19 02:50:00,
2013-06-18 22:55:00,61.5,55.6,30.02,NNE,16,1.0,2.0,81,0.00,,,0.01,Wunderground v.1.15,2013-06-19 02:55:00,
2013-06-18 23:00:00,61.4,55.5,30.02,NNE,18,1.0,4.0,81,0.00,,,0.01,Wunderground v.1.15,2013-06-19 03:00:00,
2013-06-18 23:10:00,61.2,55.0,30.02,North,351,2.0,2.0,80,0.00,,,0.01,Wunderground v.1.15,2013-06-19 03:10:00,
2013-06-18 23:15:00,61.1,54.5,30.02,NNE,26,2.0,3.0,79,0.00,,,0.01,Wunderground v.1.15,2013-06-19 03:15:00,
2013-06-18 23:20:00,61.1,54.5,30.02,NNE,19,2.0,3.0,79,0.00,,,0.01,Wunderground v.1.15,2013-06-19 03:20:00,
2013-06-18 23:25:00,61.1,54.2,30.02,NNE,15,2.0,3.0,78,0.00,,,0.01,Wunderground v.1.15,2013-06-19 03:25:00,
2013-06-18 23:35:00,61.1,54.2,30.02,NNE,25,2.0,3.0,78,0.00,,,0.01,Wunderground v.1.15,2013-06-19 03:35:00,
2013-06-18 23:45:00,60.7,54.1,30.02,NNE,22,2.0,2.0,79,0.00,,,0.01,Wunderground v.1.15,2013-06-19 03:45:00,
2013-06-18 23:50:00,60.5,54.0,30.02,NNE,25,2.0,2.0,79,0.00,,,0.01,Wunderground v.1.15,2013-06-19 03:50:00,
2013-06-18 23:55:00,60.3,53.8,30.03,NNE,29,2.0,2.0,79,0.00,,,0.01,Wunderground v.1.15,2013-06-19 03:55:00,